Terminal Aerodrome Forecast
Issued by NWS Cleveland, OH

Home | Current Version | Previous Version | Graphics & Text | Print | Product List | Glossary On
Versions: 1 2 3 4 5 6 7 8 9 10 11 12 13 14 15 16 17 18
796
FTUS41 KCLE 142051 AAA
TAFCAK
TAF AMD
KCAK 142051Z 1421/1518 33004KT P6SM OVC035
      TEMPO 1421/1423 BKN020
     FM150400 33005KT P6SM SCT050 BKN250=

USA.gov is the U.S. government's official web portal to all federal, state and local government web resources and services.